Terminal Aerodrome Forecast
Issued by NWS

Home | Current Version | Previous Version | Graphics & Text | Print | Product List | Glossary On
Versions: 1 2 3 4 5 6 7 8 9 10 11 12 13 14 15
000
FTUS43 KABR 161100
TAFMBG
TAF
KMBG 161125Z 1612/1712 VRB05KT P6SM OVC100
     FM161800 36010KT P6SM OVC100
     FM170400 VRB05KT P6SM SCT250=

USA.gov is the U.S. government's official web portal to all federal, state and local government web resources and services.